Time,TemperatureF,DewpointF,PressureIn,WindDirection,WindDirectionDegrees,WindSpeedMPH,WindSpeedGustMPH,Humidity,HourlyPrecipIn,Conditions,Clouds,dailyrainin,SolarRadiationWatts/m^2,SoftwareType,DateUTC
2013-03-02 00:00:00,38.7,30.8,30.38,ESE,123,10.4,10.4,73,0.00,RA,,0.00,0.0,WeatherDisplay:10.37,2013-03-02 00:00:00,
2013-03-02 00:05:00,38.7,31.1,30.38,ESE,115,6.9,6.9,74,0.00,RA,,0.00,0.0,WeatherDisplay:10.37,2013-03-02 00:05:00,
2013-03-02 00:10:00,38.7,31.1,30.38,ESE,103,11.5,11.5,74,0.00,CLR,,0.00,0.0,WeatherDisplay:10.37,2013-03-02 00:10:00,
2013-03-02 00:15:00,38.7,31.1,30.38,SE,127,11.5,11.5,74,0.00,CLR,,0.00,0.0,WeatherDisplay:10.37,2013-03-02 00:15:00,
2013-03-02 00:20:00,38.6,31.0,30.38,ESE,121,10.4,10.4,74,0.00,CLR,,0.00,0.0,WeatherDisplay:10.37,2013-03-02 00:20:00,
2013-03-02 00:25:00,38.6,31.0,30.38,ESE,107,11.5,11.5,74,0.00,CLR,,0.00,0.0,WeatherDisplay:10.37,2013-03-02 00:25:00,
2013-03-02 00:30:00,38.5,30.9,30.38,East,79,6.9,6.9,74,0.00,CLR,,0.00,0.0,WeatherDisplay:10.37,2013-03-02 00:30:00,
2013-03-02 00:35:00,38.5,30.9,30.38,SE,133,10.4,10.4,74,0.00,CLR,,0.00,0.0,WeatherDisplay:10.37,2013-03-02 00:35:00,
2013-03-02 00:40:00,38.5,30.9,30.38,SE,137,10.4,10.4,74,0.00,CLR,,0.00,0.0,WeatherDisplay:10.37,2013-03-02 00:40:00,
2013-03-02 00:45:00,38.4,30.8,30.38,SSE,163,11.5,11.5,74,0.00,CLR,,0.00,0.0,WeatherDisplay:10.37,2013-03-02 00:45:00,
2013-03-02 00:50:00,38.3,30.7,30.39,ESE,110,15.0,15.0,74,0.00,CLR,,0.00,0.0,WeatherDisplay:10.37,2013-03-02 00:50:00,
2013-03-02 00:55:00,38.3,30.7,30.38,ESE,117,10.0,10.0,74,0.00,CLR,,0.00,0.0,WeatherDisplay:10.37,2013-03-02 00:55:00,
2013-03-02 01:00:00,38.2,30.3,30.38,East,97,10.4,10.4,73,0.00,CLR,,0.00,0.0,WeatherDisplay:10.37,2013-03-02 01:00:00,
2013-03-02 01:05:00,38.2,30.6,30.38,ESE,118,12.0,12.0,74,0.00,CLR,,0.00,0.0,WeatherDisplay:10.37,2013-03-02 01:05:00,
2013-03-02 01:10:00,38.2,30.6,30.38,ESE,120,12.7,12.7,74,0.00,CLR,,0.00,0.0,WeatherDisplay:10.37,2013-03-02 01:10:00,
2013-03-02 01:15:00,38.1,30.5,30.38,SE,129,10.4,10.4,74,0.00,CLR,,0.00,0.0,WeatherDisplay:10.37,2013-03-02 01:15:00,
2013-03-02 01:20:00,38.1,30.5,30.38,SE,143,11.5,11.5,74,0.00,CLR,,0.00,0.0,WeatherDisplay:10.37,2013-03-02 01:20:00,
2013-03-02 01:25:00,38.1,30.5,30.38,SE,136,11.5,11.5,74,0.00,CLR,,0.00,0.0,WeatherDisplay:10.37,2013-03-02 01:25:00,
2013-03-02 01:30:00,38.1,30.5,30.38,SE,136,10.4,10.4,74,0.00,CLR,,0.00,0.0,WeatherDisplay:10.37,2013-03-02 01:30:00,
2013-03-02 01:35:00,38.1,30.5,30.38,SE,138,5.8,5.8,74,0.00,CLR,,0.00,0.0,WeatherDisplay:10.37,2013-03-02 01:35:00,
2013-03-02 01:40:00,38.1,30.9,30.38,ESE,112,8.1,8.1,75,0.00,CLR,,0.00,0.0,WeatherDisplay:10.37,2013-03-02 01:40:00,
2013-03-02 01:45:00,38.1,30.9,30.37,ESE,108,6.9,6.9,75,0.00,CLR,,0.00,0.0,WeatherDisplay:10.37,2013-03-02 01:45:00,
2013-03-02 01:50:00,38.1,30.9,30.37,East,101,7.0,7.0,75,0.00,CLR,,0.00,0.0,WeatherDisplay:10.37,2013-03-02 01:50:00,
2013-03-02 01:55:00,38.1,30.9,30.37,East,97,6.9,6.9,75,0.00,CLR,,0.00,0.0,WeatherDisplay:10.37,2013-03-02 01:55:00,
2013-03-02 02:00:00,38.1,30.9,30.37,ESE,121,10.4,10.4,75,0.00,CLR,,0.00,0.0,WeatherDisplay:10.37,2013-03-02 02:00:00,
2013-03-02 02:05:00,38.0,30.8,30.37,SE,129,6.9,6.9,75,0.00,CLR,,0.00,0.0,WeatherDisplay:10.37,2013-03-02 02:05:00,
2013-03-02 02:10:00,38.0,30.4,30.37,ENE,75,11.5,11.5,74,0.00,CLR,,0.00,0.0,WeatherDisplay:10.37,2013-03-02 02:10:00,
2013-03-02 02:15:00,38.0,30.4,30.37,East,94,10.4,10.4,74,0.00,CLR,,0.00,0.0,WeatherDisplay:10.37,2013-03-02 02:15:00,
2013-03-02 02:21:00,37.9,30.4,30.36,NE,55,9.0,9.0,74,0.00,CLR,,0.00,0.0,WeatherDisplay:10.37,2013-03-02 02:21:00,
2013-03-02 02:26:00,37.9,30.4,30.37,East,94,6.9,6.9,74,0.00,CLR,,0.00,0.0,WeatherDisplay:10.37,2013-03-02 02:26:00,
2013-03-02 02:31:00,37.8,30.3,30.36,SSE,152,5.8,5.8,74,0.00,CLR,,0.00,0.0,WeatherDisplay:10.37,2013-03-02 02:31:00,
2013-03-02 02:36:00,37.8,30.6,30.36,ESE,108,11.5,11.5,75,0.00,CLR,,0.00,0.0,WeatherDisplay:10.37,2013-03-02 02:36:00,
2013-03-02 02:41:00,37.8,30.3,30.36,ESE,110,3.5,3.5,74,0.00,CLR,,0.00,0.0,WeatherDisplay:10.37,2013-03-02 02:41:00,
2013-03-02 02:46:00,37.7,30.5,30.36,SE,131,7.0,7.0,75,0.00,CLR,,0.00,0.0,WeatherDisplay:10.37,2013-03-02 02:46:00,
2013-03-02 02:51:00,37.7,30.5,30.36,SE,141,6.9,6.9,75,0.00,CLR,,0.00,0.0,WeatherDisplay:10.37,2013-03-02 02:51:00,
2013-03-02 02:56:00,37.7,30.5,30.36,SE,142,10.4,10.4,75,0.00,CLR,,0.00,0.0,WeatherDisplay:10.37,2013-03-02 02:56:00,
2013-03-02 03:01:00,37.6,30.4,30.36,SE,133,11.0,11.0,75,0.00,CLR,,0.00,0.0,WeatherDisplay:10.37,2013-03-02 03:01:00,
2013-03-02 03:06:00,37.6,30.4,30.36,ESE,115,4.0,4.0,75,0.00,CLR,,0.00,0.0,WeatherDisplay:10.37,2013-03-02 03:06:00,
2013-03-02 03:11:00,37.6,30.7,30.36,SE,136,4.0,4.0,76,0.00,CLR,,0.00,0.0,WeatherDisplay:10.37,2013-03-02 03:11:00,
2013-03-02 03:16:00,37.6,30.7,30.36,SE,129,8.1,8.1,76,0.00,CLR,,0.00,0.0,WeatherDisplay:10.37,2013-03-02 03:16:00,
2013-03-02 03:21:00,37.5,30.3,30.36,SE,133,7.0,7.0,75,0.00,CLR,,0.00,0.0,WeatherDisplay:10.37,2013-03-02 03:21:00,
2013-03-02 03:26:00,37.5,30.3,30.36,ESE,118,5.8,5.8,75,0.00,CLR,,0.00,0.0,WeatherDisplay:10.37,2013-03-02 03:26:00,
2013-03-02 03:31:00,37.5,30.3,30.36,ESE,123,3.5,3.5,75,0.00,CLR,,0.00,0.0,WeatherDisplay:10.37,2013-03-02 03:31:00,
2013-03-02 03:36:00,37.5,30.3,30.35,SE,131,8.1,8.1,75,0.00,CLR,,0.00,0.0,WeatherDisplay:10.37,2013-03-02 03:36:00,
2013-03-02 03:41:00,37.5,30.3,30.36,SE,130,6.9,6.9,75,0.00,CLR,,0.00,0.0,WeatherDisplay:10.37,2013-03-02 03:41:00,
2013-03-02 03:46:00,37.5,30.3,30.36,ESE,119,8.1,8.1,75,0.00,CLR,,0.00,0.0,WeatherDisplay:10.37,2013-03-02 03:46:00,
2013-03-02 03:51:00,37.5,30.3,30.36,ESE,117,3.5,3.5,75,0.00,CLR,,0.00,0.0,WeatherDisplay:10.37,2013-03-02 03:51:00,
2013-03-02 03:56:00,37.5,30.3,30.35,ENE,72,6.9,6.9,75,0.00,CLR,,0.00,0.0,WeatherDisplay:10.37,2013-03-02 03:56:00,
2013-03-02 04:01:00,37.5,30.3,30.35,ENE,77,10.4,10.4,75,0.00,CLR,,0.00,0.0,WeatherDisplay:10.37,2013-03-02 04:01:00,
2013-03-02 04:06:00,37.5,30.3,30.35,ENE,78,5.8,5.8,75,0.00,CLR,,0.00,0.0,WeatherDisplay:10.37,2013-03-02 04:06:00,
2013-03-02 04:11:00,37.4,30.2,30.35,ENE,65,9.2,9.2,75,0.00,CLR,,0.00,0.0,WeatherDisplay:10.37,2013-03-02 04:11:00,
2013-03-02 04:16:00,37.4,30.2,30.35,ESE,117,4.6,4.6,75,0.00,CLR,,0.00,0.0,WeatherDisplay:10.37,2013-03-02 04:16:00,
2013-03-02 04:21:00,37.4,30.2,30.35,East,90,8.1,8.1,75,0.00,CLR,,0.00,0.0,WeatherDisplay:10.37,2013-03-02 04:21:00,
2013-03-02 04:26:00,37.4,30.2,30.35,SE,124,8.1,8.1,75,0.00,CLR,,0.00,0.0,WeatherDisplay:10.37,2013-03-02 04:26:00,
2013-03-02 04:31:00,37.4,30.2,30.35,ENE,71,3.5,3.5,75,0.00,CLR,,0.00,0.0,WeatherDisplay:10.37,2013-03-02 04:31:00,
2013-03-02 04:36:00,37.4,30.2,30.35,SE,141,8.1,8.1,75,0.00,CLR,,0.00,0.0,WeatherDisplay:10.37,2013-03-02 04:36:00,
2013-03-02 04:41:00,37.3,30.1,30.34,ESE,119,8.1,8.1,75,0.00,CLR,,0.00,0.0,WeatherDisplay:10.37,2013-03-02 04:41:00,
2013-03-02 04:46:00,37.3,30.4,30.34,SE,126,6.9,6.9,76,0.00,CLR,,0.00,0.0,WeatherDisplay:10.37,2013-03-02 04:46:00,
2013-03-02 04:51:00,37.3,30.4,30.34,ESE,114,8.1,8.1,76,0.00,CLR,,0.00,0.0,WeatherDisplay:10.37,2013-03-02 04:51:00,
2013-03-02 04:56:00,37.3,30.4,30.34,SE,140,6.0,6.0,76,0.00,CLR,,0.00,0.0,WeatherDisplay:10.37,2013-03-02 04:56:00,
2013-03-02 05:00:00,37.3,30.4,30.34,SE,128,4.6,4.6,76,0.00,CLR,,0.00,0.0,WeatherDisplay:10.37,2013-03-02 05:00:00,
2013-03-02 05:01:00,37.3,30.4,30.34,ESE,110,4.6,4.6,76,0.00,CLR,,0.00,0.0,WeatherDisplay:10.37,2013-03-02 05:01:00,
2013-03-02 05:06:00,37.3,30.4,30.34,ESE,115,5.8,5.8,76,0.00,CLR,,0.00,0.0,WeatherDisplay:10.37,2013-03-02 05:06:00,
2013-03-02 05:11:00,37.3,30.4,30.34,East,93,3.5,3.5,76,0.00,CLR,,0.00,0.0,WeatherDisplay:10.37,2013-03-02 05:11:00,
2013-03-02 05:16:00,37.3,30.4,30.34,ESE,121,5.0,5.0,76,0.00,CLR,,0.00,0.0,WeatherDisplay:10.37,2013-03-02 05:16:00,
2013-03-02 05:21:00,37.3,30.7,30.34,ESE,115,5.8,5.8,77,0.00,CLR,,0.00,0.0,WeatherDisplay:10.37,2013-03-02 05:21:00,
2013-03-02 05:26:00,37.3,30.7,30.34,SE,125,4.6,4.6,77,0.00,CLR,,0.00,0.0,WeatherDisplay:10.37,2013-03-02 05:26:00,
2013-03-02 05:31:00,37.3,30.7,30.34,ESE,106,5.8,5.8,77,0.00,CLR,,0.00,0.0,WeatherDisplay:10.37,2013-03-02 05:31:00,
2013-03-02 05:36:00,37.2,31.0,30.34,ESE,123,3.5,3.5,78,0.00,CLR,,0.00,0.0,WeatherDisplay:10.37,2013-03-02 05:36:00,
2013-03-02 05:41:00,37.2,31.0,30.34,ESE,120,4.0,4.0,78,0.00,CLR,,0.00,0.0,WeatherDisplay:10.37,2013-03-02 05:41:00,
2013-03-02 05:46:00,37.2,30.7,30.34,East,90,6.0,6.0,77,0.00,CLR,,0.00,0.0,WeatherDisplay:10.37,2013-03-02 05:46:00,
2013-03-02 05:51:00,37.2,30.7,30.34,SE,126,5.8,5.8,77,0.00,CLR,,0.00,0.0,WeatherDisplay:10.37,2013-03-02 05:51:00,
2013-03-02 05:56:00,37.2,30.7,30.34,ESE,123,6.0,6.0,77,0.00,CLR,,0.00,0.0,WeatherDisplay:10.37,2013-03-02 05:56:00,
2013-03-02 06:01:00,37.2,30.7,30.34,SE,134,3.5,3.5,77,0.00,CLR,,0.00,0.0,WeatherDisplay:10.37,2013-03-02 06:01:00,
2013-03-02 06:06:00,37.2,30.7,30.34,SE,124,3.5,3.5,77,0.00,CLR,,0.00,0.0,WeatherDisplay:10.37,2013-03-02 06:06:00,
2013-03-02 06:11:00,37.2,30.7,30.34,East,81,8.1,8.1,77,0.00,CLR,,0.00,0.0,WeatherDisplay:10.37,2013-03-02 06:11:00,
2013-03-02 06:16:00,37.1,30.6,30.34,SE,138,6.9,6.9,77,0.00,OVC,,0.00,0.0,WeatherDisplay:10.37,2013-03-02 06:16:00,
2013-03-02 06:21:00,37.1,30.6,30.33,ESE,102,4.6,4.6,77,0.00,OVC,,0.00,0.0,WeatherDisplay:10.37,2013-03-02 06:21:00,
2013-03-02 06:26:00,37.1,30.6,30.33,SSE,159,5.8,5.8,77,0.00,OVC,,0.00,0.0,WeatherDisplay:10.37,2013-03-02 06:26:00,
2013-03-02 06:31:00,37.0,30.5,30.33,ENE,65,6.9,6.9,77,0.00,OVC,,0.00,0.0,WeatherDisplay:10.37,2013-03-02 06:31:00,
2013-03-02 06:36:00,37.0,30.1,30.34,SSE,150,5.0,5.0,76,0.00,OVC,,0.00,0.0,WeatherDisplay:10.37,2013-03-02 06:36:00,
2013-03-02 06:41:00,37.0,30.1,30.34,ESE,123,10.4,10.4,76,0.00,OVC,,0.00,0.0,WeatherDisplay:10.37,2013-03-02 06:41:00,
2013-03-02 06:46:00,37.0,30.1,30.34,ESE,121,6.9,6.9,76,0.00,OVC,,0.00,0.0,WeatherDisplay:10.37,2013-03-02 06:46:00,
2013-03-02 06:51:00,37.0,30.1,30.34,SSE,148,10.4,10.4,76,0.00,OVC,,0.00,0.0,WeatherDisplay:10.37,2013-03-02 06:51:00,
2013-03-02 06:56:00,37.0,30.1,30.34,ENE,77,5.8,5.8,76,0.00,OVC,,0.00,0.0,WeatherDisplay:10.37,2013-03-02 06:56:00,
2013-03-02 07:01:00,36.9,30.4,30.34,SE,145,8.1,8.1,77,0.00,BKN,,0.00,5.0,WeatherDisplay:10.37,2013-03-02 07:01:00,
2013-03-02 07:06:00,37.0,30.5,30.34,SE,146,6.9,6.9,77,0.00,BKN,,0.00,7.0,WeatherDisplay:10.37,2013-03-02 07:06:00,
2013-03-02 07:11:00,37.0,30.5,30.34,East,99,3.5,3.5,77,0.00,BKN,,0.00,9.0,WeatherDisplay:10.37,2013-03-02 07:11:00,
2013-03-02 07:16:00,37.0,30.5,30.34,East,99,2.3,2.3,77,0.00,BKN,,0.00,11.0,WeatherDisplay:10.37,2013-03-02 07:16:00,
2013-03-02 07:21:00,37.0,30.8,30.34,ESE,120,4.0,4.0,78,0.00,BKN,,0.00,12.0,WeatherDisplay:10.37,2013-03-02 07:21:00,
2013-03-02 07:26:00,37.0,30.5,30.34,SE,140,4.6,4.6,77,0.00,BKN,,0.00,14.0,WeatherDisplay:10.37,2013-03-02 07:26:00,
2013-03-02 07:31:00,37.0,30.5,30.34,SE,128,5.8,5.8,77,0.00,BKN,,0.00,16.0,WeatherDisplay:10.37,2013-03-02 07:31:00,
2013-03-02 07:36:00,37.0,30.8,30.34,SE,139,3.5,3.5,78,0.00,BKN,,0.00,21.0,WeatherDisplay:10.37,2013-03-02 07:36:00,
2013-03-02 07:41:00,37.1,30.6,30.34,SSE,156,8.1,8.1,77,0.00,BKN,,0.00,21.0,WeatherDisplay:10.37,2013-03-02 07:41:00,
2013-03-02 07:46:00,37.0,30.8,30.34,South,171,6.9,6.9,78,0.00,BKN,,0.00,21.0,WeatherDisplay:10.37,2013-03-02 07:46:00,
2013-03-02 07:51:00,37.0,30.8,30.34,ESE,119,6.9,6.9,78,0.00,BKN,,0.00,23.0,WeatherDisplay:10.37,2013-03-02 07:51:00,
2013-03-02 07:57:00,37.1,30.9,30.34,ESE,105,7.0,7.0,78,0.00,BKN,,0.00,25.0,WeatherDisplay:10.37,2013-03-02 07:57:00,
2013-03-02 08:02:00,37.1,30.9,30.35,ESE,120,6.9,6.9,78,0.00,BKN,,0.00,26.0,WeatherDisplay:10.37,2013-03-02 08:02:00,
2013-03-02 08:07:00,37.1,30.9,30.34,ENE,75,8.0,8.0,78,0.00,BKN,,0.00,28.0,WeatherDisplay:10.37,2013-03-02 08:07:00,
2013-03-02 08:12:00,37.1,30.9,30.34,ESE,111,4.6,4.6,78,0.00,BKN,,0.00,28.0,WeatherDisplay:10.37,2013-03-02 08:12:00,
2013-03-02 08:17:00,37.1,30.9,30.34,ESE,119,6.0,6.0,78,0.00,BKN,,0.00,30.0,WeatherDisplay:10.37,2013-03-02 08:17:00,
2013-03-02 08:22:00,37.1,30.9,30.34,SSE,165,6.9,6.9,78,0.00,BKN,,0.00,35.0,WeatherDisplay:10.37,2013-03-02 08:22:00,
2013-03-02 08:27:00,37.1,30.9,30.34,East,84,5.8,5.8,78,0.00,BKN,,0.00,39.0,WeatherDisplay:10.37,2013-03-02 08:27:00,
2013-03-02 08:32:00,37.2,31.0,30.34,East,88,6.9,6.9,78,0.00,BKN,,0.00,39.0,WeatherDisplay:10.37,2013-03-02 08:32:00,
2013-03-02 08:37:00,37.2,31.0,30.34,SE,126,6.9,6.9,78,0.00,BKN,,0.00,40.0,WeatherDisplay:10.37,2013-03-02 08:37:00,
2013-03-02 08:42:00,37.2,31.0,30.34,East,88,6.9,6.9,78,0.00,BKN,,0.00,42.0,WeatherDisplay:10.37,2013-03-02 08:42:00,
2013-03-02 08:47:00,37.2,31.0,30.34,ESE,117,3.5,3.5,78,0.00,BKN,,0.00,47.0,WeatherDisplay:10.37,2013-03-02 08:47:00,
2013-03-02 08:52:00,37.2,31.0,30.34,South,169,2.3,2.3,78,0.00,BKN,,0.00,49.0,WeatherDisplay:10.37,2013-03-02 08:52:00,
2013-03-02 08:57:00,37.3,31.1,30.34,SSE,147,5.8,5.8,78,0.00,BKN,,0.00,51.0,WeatherDisplay:10.37,2013-03-02 08:57:00,
2013-03-02 09:02:00,37.3,31.1,30.34,South,177,2.3,2.3,78,0.00,BKN,,0.00,53.0,WeatherDisplay:10.37,2013-03-02 09:02:00,
2013-03-02 09:07:00,37.3,30.7,30.34,SSE,163,0.0,0.0,77,0.00,BKN,,0.00,54.0,WeatherDisplay:10.37,2013-03-02 09:07:00,
2013-03-02 09:12:00,37.3,31.1,30.34,SSE,163,1.2,0.0,78,0.00,BKN,,0.00,54.0,WeatherDisplay:10.37,2013-03-02 09:12:00,
2013-03-02 09:17:00,37.4,31.2,30.34,SSE,163,2.3,2.3,78,0.00,BKN,,0.00,54.0,WeatherDisplay:10.37,2013-03-02 09:17:00,
2013-03-02 09:22:00,37.5,31.3,30.34,SSE,163,1.2,1.2,78,0.00,BKN,,0.00,54.0,WeatherDisplay:10.37,2013-03-02 09:22:00,
2013-03-02 09:27:00,37.6,31.4,30.34,SSE,160,4.0,4.0,78,0.00,BKN,,0.00,56.0,WeatherDisplay:10.37,2013-03-02 09:27:00,
2013-03-02 09:32:00,37.7,31.5,30.34,East,92,3.5,3.5,78,0.00,BKN,,0.00,58.0,WeatherDisplay:10.37,2013-03-02 09:32:00,
2013-03-02 09:37:00,37.8,31.6,30.34,East,79,5.8,5.8,78,0.00,BKN,,0.00,60.0,WeatherDisplay:10.37,2013-03-02 09:37:00,
2013-03-02 09:42:00,37.8,31.2,30.34,ESE,111,5.8,5.8,77,0.00,BKN,,0.00,62.0,WeatherDisplay:10.37,2013-03-02 09:42:00,
2013-03-02 09:47:00,37.8,31.6,30.34,ESE,118,4.0,4.0,78,0.00,BKN,,0.00,63.0,WeatherDisplay:10.37,2013-03-02 09:47:00,
2013-03-02 09:52:00,37.9,31.7,30.34,East,92,5.0,5.0,78,0.00,BKN,,0.00,70.0,WeatherDisplay:10.37,2013-03-02 09:52:00,
2013-03-02 09:57:00,37.9,31.3,30.34,NE,55,4.6,4.6,77,0.00,BKN,,0.00,72.0,WeatherDisplay:10.37,2013-03-02 09:57:00,
2013-03-02 10:02:00,37.9,31.3,30.34,NE,55,6.9,6.9,77,0.00,BKN,,0.00,76.0,WeatherDisplay:10.37,2013-03-02 10:02:00,
2013-03-02 10:08:00,38.0,31.4,30.34,ESE,122,6.9,6.9,77,0.00,BKN,,0.00,83.0,WeatherDisplay:10.37,2013-03-02 10:08:00,
2013-03-02 10:13:00,38.0,31.1,30.34,SE,144,5.8,5.8,76,0.00,BKN,,0.00,88.0,WeatherDisplay:10.37,2013-03-02 10:13:00,
2013-03-02 10:18:00,38.0,31.1,30.34,SE,131,3.5,3.5,76,0.00,BKN,,0.00,90.0,WeatherDisplay:10.37,2013-03-02 10:18:00,
2013-03-02 10:23:00,38.1,31.2,30.34,SSE,165,4.6,4.6,76,0.00,BKN,,0.00,98.0,WeatherDisplay:10.37,2013-03-02 10:23:00,
2013-03-02 10:28:00,38.2,31.3,30.34,South,169,4.6,4.6,76,0.00,BKN,,0.00,102.0,WeatherDisplay:10.37,2013-03-02 10:28:00,
2013-03-02 10:33:00,38.2,31.3,30.34,SSE,167,1.2,0.0,76,0.00,BKN,,0.00,104.0,WeatherDisplay:10.37,2013-03-02 10:33:00,
2013-03-02 10:38:00,38.4,31.8,30.34,East,94,5.8,5.8,77,0.00,BKN,,0.00,107.0,WeatherDisplay:10.37,2013-03-02 10:38:00,
2013-03-02 10:43:00,38.6,31.7,30.34,ESE,120,11.5,11.5,76,0.00,BKN,,0.00,111.0,WeatherDisplay:10.37,2013-03-02 10:43:00,
2013-03-02 10:48:00,38.7,31.5,30.34,South,171,4.0,4.0,75,0.00,BKN,,0.00,120.0,WeatherDisplay:10.37,2013-03-02 10:48:00,
2013-03-02 10:53:00,38.7,31.5,30.34,SE,146,5.8,5.8,75,0.00,BKN,,0.00,128.0,WeatherDisplay:10.37,2013-03-02 10:53:00,
2013-03-02 10:58:00,38.7,31.5,30.34,SE,142,3.5,3.5,75,0.00,BKN,,0.00,134.0,WeatherDisplay:10.37,2013-03-02 10:58:00,
2013-03-02 11:03:00,38.9,31.3,30.34,SE,142,2.0,2.0,74,0.00,BKN,,0.00,148.0,WeatherDisplay:10.37,2013-03-02 11:03:00,
2013-03-02 11:08:00,39.0,31.7,30.33,ESE,118,6.0,6.0,75,0.00,BKN,,0.00,153.0,WeatherDisplay:10.37,2013-03-02 11:08:00,
2013-03-02 11:13:00,39.2,31.6,30.33,SE,125,4.6,4.6,74,0.00,BKN,,0.00,162.0,WeatherDisplay:10.37,2013-03-02 11:13:00,
2013-03-02 11:18:00,39.2,31.6,30.34,SSE,152,6.0,6.0,74,0.00,BKN,,0.00,149.0,WeatherDisplay:10.37,2013-03-02 11:18:00,
2013-03-02 11:23:00,39.3,31.7,30.33,SSE,150,5.0,5.0,74,0.00,BKN,,0.00,149.0,WeatherDisplay:10.37,2013-03-02 11:23:00,
2013-03-02 11:28:00,39.4,31.8,30.33,ENE,75,4.6,4.6,74,0.00,BKN,,0.00,137.0,WeatherDisplay:10.37,2013-03-02 11:28:00,
2013-03-02 11:33:00,39.5,31.9,30.33,ENE,75,6.0,6.0,74,0.00,BKN,,0.00,125.0,WeatherDisplay:10.37,2013-03-02 11:33:00,
2013-03-02 11:38:00,39.5,31.9,30.33,NE,50,3.5,3.5,74,0.00,BKN,,0.00,135.0,WeatherDisplay:10.37,2013-03-02 11:38:00,
2013-03-02 11:43:00,39.6,32.0,30.33,ESE,121,4.6,4.6,74,0.00,BKN,,0.00,149.0,WeatherDisplay:10.37,2013-03-02 11:43:00,
2013-03-02 11:48:00,39.5,31.6,30.33,East,85,3.5,3.5,73,0.00,BKN,,0.00,141.0,WeatherDisplay:10.37,2013-03-02 11:48:00,
2013-03-02 11:53:00,39.6,31.7,30.33,ESE,123,4.6,4.6,73,0.00,BKN,,0.00,139.0,WeatherDisplay:10.37,2013-03-02 11:53:00,
2013-03-02 11:58:00,39.7,31.8,30.33,SE,138,2.3,2.3,73,0.00,BKN,,0.00,142.0,WeatherDisplay:10.37,2013-03-02 11:58:00,
2013-03-02 12:03:00,39.8,31.8,30.33,NE,35,6.9,6.9,73,0.00,BKN,,0.00,148.0,WeatherDisplay:10.37,2013-03-02 12:03:00,
2013-03-02 12:08:00,39.8,31.8,30.32,NE,46,1.2,0.0,73,0.00,BKN,,0.00,153.0,WeatherDisplay:10.37,2013-03-02 12:08:00,
2013-03-02 12:13:00,40.0,32.0,30.32,SE,127,5.8,5.8,73,0.00,BKN,,0.00,167.0,WeatherDisplay:10.37,2013-03-02 12:13:00,
2013-03-02 12:19:00,40.0,31.7,30.32,ESE,109,2.3,0.0,72,0.00,BKN,,0.00,190.0,WeatherDisplay:10.37,2013-03-02 12:19:00,
2013-03-02 12:24:00,40.1,31.8,30.32,ESE,113,3.5,3.5,72,0.00,BKN,,0.00,188.0,WeatherDisplay:10.37,2013-03-02 12:24:00,
2013-03-02 12:29:00,40.2,31.9,30.32,ENE,69,4.6,4.6,72,0.00,BKN,,0.00,193.0,WeatherDisplay:10.37,2013-03-02 12:29:00,
2013-03-02 12:34:00,40.3,32.0,30.32,NE,36,3.5,3.5,72,0.00,BKN,,0.00,197.0,WeatherDisplay:10.37,2013-03-02 12:34:00,
2013-03-02 12:39:00,40.4,31.7,30.32,SSE,158,4.6,4.6,71,0.00,BKN,,0.00,181.0,WeatherDisplay:10.37,2013-03-02 12:39:00,
2013-03-02 12:44:00,40.5,32.2,30.32,ESE,103,5.8,5.8,72,0.00,BKN,,0.00,160.0,WeatherDisplay:10.37,2013-03-02 12:44:00,
2013-03-02 12:49:00,40.6,32.3,30.32,NNE,33,5.8,5.8,72,0.00,BKN,,0.00,160.0,WeatherDisplay:10.37,2013-03-02 12:49:00,
2013-03-02 12:54:00,40.7,32.4,30.31,NE,55,7.0,7.0,72,0.00,BKN,,0.00,174.0,WeatherDisplay:10.37,2013-03-02 12:54:00,
2013-03-02 12:59:00,40.8,32.5,30.31,ESE,113,5.0,5.0,72,0.00,BKN,,0.00,181.0,WeatherDisplay:10.37,2013-03-02 12:59:00,
2013-03-02 13:04:00,40.9,32.2,30.31,East,94,5.8,5.8,71,0.00,BKN,,0.00,195.0,WeatherDisplay:10.37,2013-03-02 13:04:00,
2013-03-02 13:09:00,40.9,32.2,30.31,NE,44,2.3,2.3,71,0.00,BKN,,0.00,186.0,WeatherDisplay:10.37,2013-03-02 13:09:00,
2013-03-02 13:14:00,40.9,32.2,30.31,NNE,21,5.8,5.8,71,0.00,BKN,,0.00,192.0,WeatherDisplay:10.37,2013-03-02 13:14:00,
2013-03-02 13:19:00,40.9,32.2,30.31,SE,130,3.5,3.5,71,0.00,BKN,,0.00,181.0,WeatherDisplay:10.37,2013-03-02 13:19:00,
2013-03-02 13:24:00,41.1,32.4,30.30,NNE,32,3.5,3.5,71,0.00,BKN,,0.00,174.0,WeatherDisplay:10.37,2013-03-02 13:24:00,
2013-03-02 13:29:00,41.3,32.6,30.30,NNE,32,2.3,2.3,71,0.00,BKN,,0.00,178.0,WeatherDisplay:10.37,2013-03-02 13:29:00,
2013-03-02 13:34:00,41.5,32.4,30.30,ENE,76,5.0,5.0,70,0.00,BKN,,0.00,178.0,WeatherDisplay:10.37,2013-03-02 13:34:00,
2013-03-02 13:39:00,41.5,32.4,30.30,ESE,105,4.6,4.6,70,0.00,BKN,,0.00,185.0,WeatherDisplay:10.37,2013-03-02 13:39:00,
2013-03-02 13:44:00,41.5,32.4,30.30,NE,34,6.9,6.9,70,0.00,BKN,,0.00,213.0,WeatherDisplay:10.37,2013-03-02 13:44:00,
2013-03-02 13:49:00,41.4,32.3,30.30,NNE,17,4.6,4.6,70,0.00,SCT,,0.00,232.0,WeatherDisplay:10.37,2013-03-02 13:49:00,
2013-03-02 13:54:00,41.3,32.2,30.30,NNE,27,7.0,7.0,70,0.00,BKN,,0.00,202.0,WeatherDisplay:10.37,2013-03-02 13:54:00,
2013-03-02 13:59:00,41.2,32.2,30.30,SE,128,5.8,5.8,70,0.00,BKN,,0.00,171.0,WeatherDisplay:10.37,2013-03-02 13:59:00,
2013-03-02 14:04:00,41.3,32.2,30.29,East,97,3.5,3.5,70,0.00,BKN,,0.00,165.0,WeatherDisplay:10.37,2013-03-02 14:04:00,
2013-03-02 14:09:00,41.3,32.2,30.29,SE,125,4.6,4.6,70,0.00,BKN,,0.00,185.0,WeatherDisplay:10.37,2013-03-02 14:09:00,
2013-03-02 14:14:00,41.4,32.3,30.29,SE,128,4.0,4.0,70,0.00,BKN,,0.00,186.0,WeatherDisplay:10.37,2013-03-02 14:14:00,
2013-03-02 14:19:00,41.4,32.0,30.29,NE,41,7.0,7.0,69,0.00,BKN,,0.00,190.0,WeatherDisplay:10.37,2013-03-02 14:19:00,
2013-03-02 14:24:00,41.4,32.0,30.29,NE,34,6.9,6.9,69,0.00,SCT,,0.00,234.0,WeatherDisplay:10.37,2013-03-02 14:24:00,
2013-03-02 14:29:00,41.7,32.3,30.29,NNE,33,2.3,2.3,69,0.00,CLR,,0.00,538.0,WeatherDisplay:10.37,2013-03-02 14:29:00,
2013-03-02 14:34:00,42.2,32.8,30.29,SE,143,3.5,3.5,69,0.00,CLR,,0.00,378.0,WeatherDisplay:10.37,2013-03-02 14:34:00,
2013-03-02 14:39:00,42.6,32.8,30.29,ENE,71,6.0,6.0,68,0.00,SCT,,0.00,186.0,WeatherDisplay:10.37,2013-03-02 14:39:00,
2013-03-02 14:44:00,42.6,32.4,30.29,SE,136,2.0,2.0,67,0.00,SCT,,0.00,338.0,WeatherDisplay:10.37,2013-03-02 14:44:00,
2013-03-02 14:49:00,42.7,32.5,30.29,East,99,4.6,4.6,67,0.00,SCT,,0.00,181.0,WeatherDisplay:10.37,2013-03-02 14:49:00,
2013-03-02 14:55:00,42.6,32.4,30.29,SSE,150,6.0,6.0,67,0.00,BKN,,0.00,125.0,WeatherDisplay:10.37,2013-03-02 14:55:00,
2013-03-02 15:00:00,42.4,32.2,30.29,ESE,122,4.6,4.6,67,0.00,BKN,,0.00,116.0,WeatherDisplay:10.37,2013-03-02 15:00:00,
2013-03-02 15:05:00,42.3,32.1,30.28,SE,129,2.3,2.3,67,0.00,BKN,,0.00,156.0,WeatherDisplay:10.37,2013-03-02 15:05:00,
2013-03-02 15:10:00,42.3,32.5,30.28,East,90,3.5,3.5,68,0.00,SCT,,0.00,176.0,WeatherDisplay:10.37,2013-03-02 15:10:00,
2013-03-02 15:15:00,42.4,32.2,30.28,NE,44,6.9,6.9,67,0.00,SCT,,0.00,153.0,WeatherDisplay:10.37,2013-03-02 15:15:00,
2013-03-02 15:20:00,42.4,32.2,30.28,ESE,115,4.6,4.6,67,0.00,BKN,,0.00,114.0,WeatherDisplay:10.37,2013-03-02 15:20:00,
2013-03-02 15:25:00,42.3,32.1,30.28,East,88,4.6,4.6,67,0.00,BKN,,0.00,98.0,WeatherDisplay:10.37,2013-03-02 15:25:00,
2013-03-02 15:30:00,42.2,32.4,30.28,SE,134,2.0,2.0,68,0.00,CLR,,0.00,237.0,WeatherDisplay:10.37,2013-03-02 15:30:00,
2013-03-02 15:35:00,42.5,32.7,30.28,NE,44,2.3,2.3,68,0.00,CLR,,0.00,353.0,WeatherDisplay:10.37,2013-03-02 15:35:00,
2013-03-02 15:40:00,43.1,33.3,30.27,NNE,16,4.6,4.6,68,0.00,CLR,,0.00,346.0,WeatherDisplay:10.37,2013-03-02 15:40:00,
2013-03-02 15:45:00,43.5,32.9,30.27,ENE,69,5.8,5.8,66,0.00,CLR,,0.00,338.0,WeatherDisplay:10.37,2013-03-02 15:45:00,
2013-03-02 15:50:00,43.7,33.1,30.27,SE,140,3.5,3.5,66,0.00,SCT,,0.00,135.0,WeatherDisplay:10.37,2013-03-02 15:50:00,
2013-03-02 15:55:00,43.5,32.9,30.27,SE,131,4.6,4.6,66,0.00,CLR,,0.00,269.0,WeatherDisplay:10.37,2013-03-02 15:55:00,
2013-03-02 16:00:00,43.7,33.1,30.27,SSE,163,4.6,4.6,66,0.00,CLR,,0.00,197.0,WeatherDisplay:10.37,2013-03-02 16:00:00,
2013-03-02 16:05:00,43.4,32.4,30.27,SE,136,3.5,3.5,65,0.00,SCT,,0.00,121.0,WeatherDisplay:10.37,2013-03-02 16:05:00,
2013-03-02 16:10:00,43.1,32.5,30.27,East,100,5.8,5.8,66,0.00,SCT,,0.00,142.0,WeatherDisplay:10.37,2013-03-02 16:10:00,
2013-03-02 16:15:00,42.7,32.5,30.27,East,88,5.8,5.8,67,0.00,BKN,,0.00,54.0,WeatherDisplay:10.37,2013-03-02 16:15:00,
2013-03-02 16:20:00,42.4,32.2,30.27,East,81,3.0,8.0,67,0.00,FEW,,0.00,127.0,WeatherDisplay:10.37,2013-03-02 16:20:00,
2013-03-02 16:25:00,42.2,32.4,30.27,NE,56,5.0,9.0,68,0.00,CLR,,0.00,135.0,WeatherDisplay:10.37,2013-03-02 16:25:00,
2013-03-02 16:30:00,42.2,32.4,30.26,NE,52,6.0,9.0,68,0.00,FEW,,0.00,127.0,WeatherDisplay:10.37,2013-03-02 16:30:00,
2013-03-02 16:35:00,42.4,32.6,30.26,East,92,8.1,8.1,68,0.00,CLR,,0.00,111.0,WeatherDisplay:10.37,2013-03-02 16:35:00,
2013-03-02 16:40:00,42.4,32.2,30.26,NE,55,7.0,7.0,67,0.00,FEW,,0.00,95.0,WeatherDisplay:10.37,2013-03-02 16:40:00,
2013-03-02 16:45:00,42.2,32.0,30.26,ENE,59,6.0,8.0,67,0.00,FEW,,0.00,88.0,WeatherDisplay:10.37,2013-03-02 16:45:00,
2013-03-02 16:50:00,41.8,32.0,30.26,ESE,117,4.6,4.6,68,0.00,SCT,,0.00,54.0,WeatherDisplay:10.37,2013-03-02 16:50:00,
2013-03-02 16:55:00,41.5,32.1,30.26,East,84,5.0,5.0,69,0.00,SCT,,0.00,46.0,WeatherDisplay:10.37,2013-03-02 16:55:00,
2013-03-02 17:00:00,41.2,31.8,30.26,NE,55,9.2,9.2,69,0.00,BKN,,0.00,28.0,WeatherDisplay:10.37,2013-03-02 17:00:00,
2013-03-02 17:05:00,40.8,31.8,30.26,NE,44,5.0,5.0,70,0.00,BKN,,0.00,25.0,WeatherDisplay:10.37,2013-03-02 17:05:00,
2013-03-02 17:10:00,40.6,31.9,30.26,East,79,6.9,6.9,71,0.00,BKN,,0.00,23.0,WeatherDisplay:10.37,2013-03-02 17:10:00,
2013-03-02 17:15:00,40.4,31.7,30.26,NE,36,5.8,5.8,71,0.00,BKN,,0.00,19.0,WeatherDisplay:10.37,2013-03-02 17:15:00,
2013-03-02 17:20:00,40.2,31.5,30.26,NE,55,6.0,6.0,71,0.00,BKN,,0.00,16.0,WeatherDisplay:10.37,2013-03-02 17:20:00,
2013-03-02 17:25:00,40.0,31.7,30.26,East,90,8.1,8.1,72,0.00,BKN,,0.00,12.0,WeatherDisplay:10.37,2013-03-02 17:25:00,
2013-03-02 17:30:00,39.8,31.5,30.26,East,85,4.6,4.6,72,0.00,BKN,,0.00,11.0,WeatherDisplay:10.37,2013-03-02 17:30:00,
2013-03-02 17:35:00,39.6,31.7,30.26,ENE,69,4.6,4.6,73,0.00,SCT,,0.00,7.0,WeatherDisplay:10.37,2013-03-02 17:35:00,
2013-03-02 17:40:00,39.4,31.5,30.26,NE,46,3.5,3.5,73,0.00,CLR,,0.00,5.0,WeatherDisplay:10.37,2013-03-02 17:40:00,
2013-03-02 17:45:00,39.2,31.6,30.26,NE,46,4.6,4.6,74,0.00,OVC,,0.00,0.0,WeatherDisplay:10.37,2013-03-02 17:45:00,
2013-03-02 17:50:00,39.1,31.5,30.26,East,90,4.6,4.6,74,0.00,OVC,,0.00,0.0,WeatherDisplay:10.37,2013-03-02 17:50:00,
2013-03-02 17:55:00,38.9,31.3,30.26,ENE,60,3.5,3.5,74,0.00,OVC,,0.00,0.0,WeatherDisplay:10.37,2013-03-02 17:55:00,
2013-03-02 18:00:00,38.7,31.5,30.26,ENE,60,3.5,3.5,75,0.00,CLR,,0.00,0.0,WeatherDisplay:10.37,2013-03-02 18:00:00,
2013-03-02 18:05:00,38.6,31.4,30.26,ESE,117,5.0,5.0,75,0.00,CLR,,0.00,0.0,WeatherDisplay:10.37,2013-03-02 18:05:00,
2013-03-02 18:10:00,38.4,31.5,30.26,East,80,5.0,5.0,76,0.00,CLR,,0.00,0.0,WeatherDisplay:10.37,2013-03-02 18:10:00,
2013-03-02 18:15:00,38.2,31.3,30.26,ESE,111,3.5,3.5,76,0.00,CLR,,0.00,0.0,WeatherDisplay:10.37,2013-03-02 18:15:00,
2013-03-02 18:20:00,38.0,31.1,30.26,ESE,119,3.5,3.5,76,0.00,CLR,,0.00,0.0,WeatherDisplay:10.37,2013-03-02 18:20:00,
2013-03-02 18:25:00,37.9,31.3,30.26,ESE,122,3.5,3.5,77,0.00,CLR,,0.00,0.0,WeatherDisplay:10.37,2013-03-02 18:25:00,
2013-03-02 18:30:00,37.8,31.2,30.26,ESE,123,3.5,3.5,77,0.00,CLR,,0.00,0.0,WeatherDisplay:10.37,2013-03-02 18:30:00,
2013-03-02 18:35:00,37.7,31.1,30.26,ESE,123,1.2,1.2,77,0.00,CLR,,0.00,0.0,WeatherDisplay:10.37,2013-03-02 18:35:00,
2013-03-02 18:40:00,37.5,31.3,30.27,SE,128,3.5,3.5,78,0.00,CLR,,0.00,0.0,WeatherDisplay:10.37,2013-03-02 18:40:00,
2013-03-02 18:45:00,37.5,31.3,30.27,SE,128,3.5,3.5,78,0.00,CLR,,0.00,0.0,WeatherDisplay:10.37,2013-03-02 18:45:00,
2013-03-02 18:50:00,37.4,31.2,30.27,SE,128,3.5,3.5,78,0.00,CLR,,0.00,0.0,WeatherDisplay:10.37,2013-03-02 18:50:00,
2013-03-02 18:55:00,37.3,31.1,30.27,SE,128,1.2,1.2,78,0.00,CLR,,0.00,0.0,WeatherDisplay:10.37,2013-03-02 18:55:00,
2013-03-02 19:00:00,37.1,31.2,30.27,SE,128,2.3,2.3,79,0.00,CLR,,0.00,0.0,WeatherDisplay:10.37,2013-03-02 19:00:00,
2013-03-02 19:06:00,37.0,31.1,30.27,SE,128,1.2,1.4,79,0.00,CLR,,0.00,0.0,WeatherDisplay:10.37,2013-03-02 19:06:00,
2013-03-02 19:11:00,36.9,31.0,30.27,SE,127,3.5,3.5,79,0.00,CLR,,0.00,0.0,WeatherDisplay:10.37,2013-03-02 19:11:00,
2013-03-02 19:16:00,36.7,30.8,30.27,SE,127,3.5,3.5,79,0.00,CLR,,0.00,0.0,WeatherDisplay:10.37,2013-03-02 19:16:00,
2013-03-02 19:21:00,36.6,30.7,30.27,SE,127,2.3,2.3,79,0.00,CLR,,0.00,0.0,WeatherDisplay:10.37,2013-03-02 19:21:00,
2013-03-02 19:26:00,36.4,30.5,30.27,SE,127,1.2,1.2,79,0.00,CLR,,0.00,0.0,WeatherDisplay:10.37,2013-03-02 19:26:00,
2013-03-02 19:31:00,36.3,30.7,30.27,SE,127,1.2,1.2,80,0.00,CLR,,0.00,0.0,WeatherDisplay:10.37,2013-03-02 19:31:00,
2013-03-02 19:36:00,36.2,30.6,30.27,SE,127,1.2,1.2,80,0.00,CLR,,0.00,0.0,WeatherDisplay:10.37,2013-03-02 19:36:00,
2013-03-02 19:41:00,36.0,30.4,30.27,SE,127,1.2,0.0,80,0.00,CLR,,0.00,0.0,WeatherDisplay:10.37,2013-03-02 19:41:00,
2013-03-02 19:46:00,35.9,30.6,30.27,SE,127,1.2,1.2,81,0.00,CLR,,0.00,0.0,WeatherDisplay:10.37,2013-03-02 19:46:00,
2013-03-02 19:51:00,35.8,30.5,30.27,SE,127,1.2,1.2,81,0.00,CLR,,0.00,0.0,WeatherDisplay:10.37,2013-03-02 19:51:00,
2013-03-02 19:56:00,35.7,30.4,30.27,SE,127,1.2,0.0,81,0.00,CLR,,0.00,0.0,WeatherDisplay:10.37,2013-03-02 19:56:00,
2013-03-02 20:01:00,35.6,30.3,30.27,SE,127,2.3,2.3,81,0.00,CLR,,0.00,0.0,WeatherDisplay:10.37,2013-03-02 20:01:00,
2013-03-02 20:06:00,35.4,30.5,30.27,SE,127,0.0,0.0,82,0.00,CLR,,0.00,0.0,WeatherDisplay:10.37,2013-03-02 20:06:00,
2013-03-02 20:11:00,35.3,30.4,30.27,SE,127,2.3,2.3,82,0.00,CLR,,0.00,0.0,WeatherDisplay:10.37,2013-03-02 20:11:00,
2013-03-02 20:16:00,35.1,30.2,30.27,SE,127,2.3,2.3,82,0.00,CLR,,0.00,0.0,WeatherDisplay:10.37,2013-03-02 20:16:00,
2013-03-02 20:21:00,34.9,30.0,30.27,SE,127,1.2,1.2,82,0.00,CLR,,0.00,0.0,WeatherDisplay:10.37,2013-03-02 20:21:00,
2013-03-02 20:26:00,34.8,30.2,30.27,SE,127,0.0,0.0,83,0.00,CLR,,0.00,0.0,WeatherDisplay:10.37,2013-03-02 20:26:00,
2013-03-02 20:31:00,34.6,30.0,30.27,SE,127,0.0,0.0,83,0.00,CLR,,0.00,0.0,WeatherDisplay:10.37,2013-03-02 20:31:00,
2013-03-02 20:36:00,34.4,29.8,30.27,SE,127,1.2,1.2,83,0.00,CLR,,0.00,0.0,WeatherDisplay:10.37,2013-03-02 20:36:00,
2013-03-02 20:41:00,34.2,29.6,30.27,SE,127,1.2,0.0,83,0.00,CLR,,0.00,0.0,WeatherDisplay:10.37,2013-03-02 20:41:00,
2013-03-02 20:46:00,34.2,29.9,30.27,SE,127,2.3,2.3,84,0.00,CLR,,0.00,0.0,WeatherDisplay:10.37,2013-03-02 20:46:00,
2013-03-02 20:51:00,34.1,29.8,30.27,SE,127,1.2,1.2,84,0.00,CLR,,0.00,0.0,WeatherDisplay:10.37,2013-03-02 20:51:00,
2013-03-02 20:56:00,33.9,29.6,30.27,SE,127,1.2,1.2,84,0.00,CLR,,0.00,0.0,WeatherDisplay:10.37,2013-03-02 20:56:00,
2013-03-02 21:01:00,33.8,29.5,30.27,SE,127,0.0,0.0,84,0.00,CLR,,0.00,0.0,WeatherDisplay:10.37,2013-03-02 21:01:00,
2013-03-02 21:06:00,33.5,29.2,30.27,SE,127,0.0,0.0,84,0.00,CLR,,0.00,0.0,WeatherDisplay:10.37,2013-03-02 21:06:00,
2013-03-02 21:11:00,33.3,29.0,30.27,SE,127,1.2,0.0,84,0.00,CLR,,0.00,0.0,WeatherDisplay:10.37,2013-03-02 21:11:00,
2013-03-02 21:16:00,33.1,28.8,30.27,SE,127,1.2,1.2,84,0.00,CLR,,0.00,0.0,WeatherDisplay:10.37,2013-03-02 21:16:00,
2013-03-02 21:21:00,32.9,28.9,30.27,SE,127,0.0,0.0,85,0.00,CLR,,0.00,0.0,WeatherDisplay:10.37,2013-03-02 21:21:00,
2013-03-02 21:26:00,32.7,29.0,30.27,SE,127,0.0,0.0,86,0.00,CLR,,0.00,0.0,WeatherDisplay:10.37,2013-03-02 21:26:00,
2013-03-02 21:31:00,32.6,28.9,30.27,SE,127,0.0,0.0,86,0.00,CLR,,0.00,0.0,WeatherDisplay:10.37,2013-03-02 21:31:00,
2013-03-02 21:36:00,32.4,28.4,30.28,SE,127,0.0,0.0,85,0.00,CLR,,0.00,0.0,WeatherDisplay:10.37,2013-03-02 21:36:00,
2013-03-02 21:41:00,32.2,28.2,30.27,SE,127,0.0,0.0,85,0.00,CLR,,0.00,0.0,WeatherDisplay:10.37,2013-03-02 21:41:00,
2013-03-02 21:46:00,32.0,28.3,30.27,SE,127,0.0,0.0,86,0.00,CLR,,0.00,0.0,WeatherDisplay:10.37,2013-03-02 21:46:00,
2013-03-02 21:51:00,31.8,28.1,30.27,SE,127,0.0,0.0,86,0.00,CLR,,0.00,0.0,WeatherDisplay:10.37,2013-03-02 21:51:00,
2013-03-02 21:56:00,31.6,27.9,30.27,SE,127,0.0,0.0,86,0.00,CLR,,0.00,0.0,WeatherDisplay:10.37,2013-03-02 21:56:00,
2013-03-02 22:01:00,31.5,27.8,30.27,SE,127,0.0,0.0,86,0.00,CLR,,0.00,0.0,WeatherDisplay:10.37,2013-03-02 22:01:00,
2013-03-02 22:06:00,31.3,27.9,30.27,SE,127,0.0,0.0,87,0.00,CLR,,0.00,0.0,WeatherDisplay:10.37,2013-03-02 22:06:00,
2013-03-02 22:11:00,31.2,27.8,30.27,SE,127,0.0,0.0,87,0.00,CLR,,0.00,0.0,WeatherDisplay:10.37,2013-03-02 22:11:00,
2013-03-02 22:16:00,31.1,28.0,30.27,SE,127,0.0,0.0,88,0.00,CLR,,0.00,0.0,WeatherDisplay:10.37,2013-03-02 22:16:00,
2013-03-02 22:21:00,31.0,27.9,30.27,SE,127,0.0,0.0,88,0.00,CLR,,0.00,0.0,WeatherDisplay:10.37,2013-03-02 22:21:00,
2013-03-02 22:26:00,31.0,27.9,30.27,SE,127,0.0,0.0,88,0.00,CLR,,0.00,0.0,WeatherDisplay:10.37,2013-03-02 22:26:00,
2013-03-02 22:31:00,30.8,27.7,30.27,SE,127,0.0,0.0,88,0.00,CLR,,0.00,0.0,WeatherDisplay:10.37,2013-03-02 22:31:00,
2013-03-02 22:37:00,30.8,27.7,30.27,SE,127,0.0,0.0,88,0.00,CLR,,0.00,0.0,WeatherDisplay:10.37,2013-03-02 22:37:00,
2013-03-02 22:42:00,30.7,27.6,30.27,SE,127,0.0,0.0,88,0.00,CLR,,0.00,0.0,WeatherDisplay:10.37,2013-03-02 22:42:00,
2013-03-02 22:47:00,30.6,27.5,30.27,SE,127,0.0,0.0,88,0.00,CLR,,0.00,0.0,WeatherDisplay:10.37,2013-03-02 22:47:00,
2013-03-02 22:52:00,30.5,27.4,30.27,SE,127,0.0,0.0,88,0.00,CLR,,0.00,0.0,WeatherDisplay:10.37,2013-03-02 22:52:00,
2013-03-02 22:57:00,30.4,27.5,30.27,SE,127,0.0,0.0,89,0.00,CLR,,0.00,0.0,WeatherDisplay:10.37,2013-03-02 22:57:00,
2013-03-02 23:02:00,30.3,27.4,30.27,SE,127,0.0,0.0,89,0.00,CLR,,0.00,0.0,WeatherDisplay:10.37,2013-03-02 23:02:00,
2013-03-02 23:07:00,30.3,27.4,30.27,SE,127,0.0,0.0,89,0.00,CLR,,0.00,0.0,WeatherDisplay:10.37,2013-03-02 23:07:00,
2013-03-02 23:12:00,30.1,27.3,30.27,SE,127,0.0,0.0,89,0.00,CLR,,0.00,0.0,WeatherDisplay:10.37,2013-03-02 23:12:00,
2013-03-02 23:17:00,30.0,27.2,30.27,SE,127,0.0,0.0,89,0.00,CLR,,0.00,0.0,WeatherDisplay:10.37,2013-03-02 23:17:00,
2013-03-02 23:22:00,29.9,27.1,30.27,SE,127,0.0,0.0,89,0.00,CLR,,0.00,0.0,WeatherDisplay:10.37,2013-03-02 23:22:00,
2013-03-02 23:27:00,29.8,27.0,30.27,SE,127,0.0,0.0,89,0.00,CLR,,0.00,0.0,WeatherDisplay:10.37,2013-03-02 23:27:00,
2013-03-02 23:32:00,29.8,27.0,30.27,SE,127,2.3,2.3,89,0.00,CLR,,0.00,0.0,WeatherDisplay:10.37,2013-03-02 23:32:00,
2013-03-02 23:37:00,29.7,26.9,30.27,SE,127,0.0,0.0,89,0.00,CLR,,0.00,0.0,WeatherDisplay:10.37,2013-03-02 23:37:00,
2013-03-02 23:42:00,29.6,27.0,30.27,SE,127,0.0,0.0,90,0.00,CLR,,0.00,0.0,WeatherDisplay:10.37,2013-03-02 23:42:00,
2013-03-02 23:47:00,29.5,26.9,30.27,SE,127,0.0,0.0,90,0.00,CLR,,0.00,0.0,WeatherDisplay:10.37,2013-03-02 23:47:00,
2013-03-02 23:52:00,29.4,26.8,30.27,SE,127,0.0,0.0,90,0.00,CLR,,0.00,0.0,WeatherDisplay:10.37,2013-03-02 23:52:00,
2013-03-02 23:57:00,29.3,26.7,30.27,SE,127,0.0,0.0,90,0.00,CLR,,0.00,0.0,WeatherDisplay:10.37,2013-03-02 23:57:00,